createdAt,value
2023-04-22T00:02:13.135Z,63.60
2023-04-22T00:04:41.801Z,63.80
2023-04-22T00:07:08.774Z,63.60
2023-04-22T00:09:36.185Z,63.70
2023-04-22T00:12:03.184Z,63.70
2023-04-22T00:14:32.675Z,63.80
2023-04-22T00:16:59.507Z,63.60
2023-04-22T00:19:26.259Z,63.80
2023-04-22T00:21:53.213Z,63.60
2023-04-22T00:24:20.200Z,63.70
2023-04-22T00:26:46.843Z,63.80
2023-04-22T00:29:13.468Z,63.70
2023-04-22T00:31:40.080Z,63.90
2023-04-22T00:34:06.724Z,63.80
2023-04-22T00:36:33.421Z,63.80
2023-04-22T00:39:00.221Z,63.70
2023-04-22T00:41:27.679Z,63.80
2023-04-22T00:43:54.656Z,63.70
2023-04-22T00:46:21.315Z,63.90
2023-04-22T00:48:48.089Z,63.80
2023-04-22T00:51:14.756Z,63.80
2023-04-22T00:53:41.406Z,63.80
2023-04-22T00:56:08.199Z,63.80
2023-04-22T00:58:35.131Z,63.90
2023-04-22T01:01:02.155Z,63.80
2023-04-22T01:03:30.706Z,63.90
2023-04-22T01:05:58.244Z,63.80
2023-04-22T01:08:29.946Z,63.80
2023-04-22T01:10:57.688Z,63.70
2023-04-22T01:13:24.605Z,63.80
2023-04-22T01:15:53.106Z,63.90
2023-04-22T01:18:20.168Z,64.90
2023-04-22T01:20:46.822Z,64.30
2023-04-22T01:23:22.539Z,64.30
2023-04-22T01:25:49.773Z,64.30
2023-04-22T01:28:16.995Z,64.30
2023-04-22T01:30:44.040Z,64.40
2023-04-22T01:33:11.615Z,64.30
2023-04-22T01:35:39.076Z,64.40
2023-04-22T01:38:11.050Z,64.30
2023-04-22T01:40:39.307Z,64.30
2023-04-22T01:43:06.116Z,64.30
2023-04-22T01:45:32.850Z,64.50
2023-04-22T01:47:59.587Z,64.40
2023-04-22T01:50:26.251Z,64.20
2023-04-22T01:52:53.217Z,64.20
2023-04-22T01:55:19.819Z,64.30
2023-04-22T01:57:46.494Z,64.40
2023-04-22T02:00:13.606Z,64.30
2023-04-22T02:02:40.582Z,64.30
2023-04-22T02:05:08.119Z,64.40
2023-04-22T02:07:36.326Z,64.20
2023-04-22T02:10:05.412Z,64.30
2023-04-22T02:12:32.414Z,64.20
2023-04-22T02:14:59.370Z,64.30
2023-04-22T02:17:26.317Z,64.20
2023-04-22T02:19:53.178Z,64.20
2023-04-22T02:22:20.033Z,64.20
2023-04-22T02:24:46.779Z,64.30
2023-04-22T02:27:13.382Z,64.30
2023-04-22T02:29:40.346Z,64.30
2023-04-22T02:32:07.490Z,64.30
2023-04-22T02:34:34.080Z,64.20
2023-04-22T02:37:00.938Z,64.20
2023-04-22T02:39:27.602Z,64.20
2023-04-22T02:41:54.632Z,64.20
2023-04-22T02:44:21.222Z,64.20
2023-04-22T02:46:47.880Z,64.20
2023-04-22T02:49:14.479Z,64.30
2023-04-22T02:51:41.179Z,64.20
2023-04-22T02:54:07.817Z,64.10
2023-04-22T02:56:34.490Z,64.20
2023-04-22T02:59:01.098Z,64.20
2023-04-22T03:01:27.869Z,64.10
2023-04-22T03:03:54.815Z,64.20
2023-04-22T03:06:21.613Z,64.00
2023-04-22T03:08:48.330Z,64.10
2023-04-22T03:11:14.950Z,63.90
2023-04-22T03:13:41.559Z,64.10
2023-04-22T03:16:08.272Z,64.00
2023-04-22T03:18:34.977Z,64.00
2023-04-22T03:21:01.645Z,64.10
2023-04-22T03:23:28.277Z,63.90
2023-04-22T03:25:54.901Z,64.00
2023-04-22T03:28:21.532Z,63.90
2023-04-22T03:30:48.505Z,64.00
2023-04-22T03:33:15.168Z,63.80
2023-04-22T03:35:41.879Z,64.10
2023-04-22T03:38:08.539Z,63.90
2023-04-22T03:40:35.221Z,63.90
2023-04-22T03:43:03.491Z,63.80
2023-04-22T03:45:30.276Z,64.00
2023-04-22T03:47:57.080Z,63.90
2023-04-22T03:50:25.057Z,63.90
2023-04-22T03:52:51.631Z,63.90
2023-04-22T03:55:18.276Z,63.80
2023-04-22T03:57:44.914Z,65.30
2023-04-22T04:00:12.006Z,61.40
2023-04-22T04:02:38.817Z,56.40
2023-04-22T04:05:06.314Z,57.10
2023-04-22T04:07:33.048Z,57.40
2023-04-22T04:09:59.676Z,59.00
2023-04-22T04:12:26.322Z,60.30
2023-04-22T04:14:52.889Z,62.00
2023-04-22T04:17:20.546Z,61.40
2023-04-22T04:19:47.285Z,60.80
2023-04-22T04:22:14.892Z,60.60
2023-04-22T04:24:41.916Z,60.00
2023-04-22T04:27:09.028Z,60.70
2023-04-22T04:29:36.890Z,59.70
2023-04-22T04:32:04.650Z,59.60
2023-04-22T04:34:32.258Z,59.40
2023-04-22T04:36:58.877Z,59.50
2023-04-22T04:39:26.454Z,59.40
2023-04-22T04:41:55.284Z,59.50
2023-04-22T04:44:22.148Z,59.20
2023-04-22T04:46:48.761Z,59.30
2023-04-22T04:49:15.662Z,61.50
2023-04-22T04:51:42.261Z,60.30
2023-04-22T04:54:11.688Z,60.20
2023-04-22T04:56:38.453Z,60.40
2023-04-22T04:59:05.116Z,60.40
2023-04-22T05:01:31.745Z,60.20
2023-04-22T05:03:58.616Z,60.60
2023-04-22T05:06:26.458Z,60.70
2023-04-22T05:08:53.200Z,60.70
2023-04-22T05:11:19.809Z,60.80
2023-04-22T05:13:46.442Z,61.30
2023-04-22T05:16:13.301Z,63.60
2023-04-22T05:18:40.671Z,64.70
2023-04-22T05:21:07.614Z,65.50
2023-04-22T05:23:34.294Z,67.40
2023-04-22T05:26:01.086Z,65.10
2023-04-22T05:28:27.780Z,66.70
2023-04-22T05:30:54.381Z,67.50
2023-04-22T05:33:21.018Z,65.70
2023-04-22T05:35:47.703Z,65.40
2023-04-22T05:38:14.304Z,66.00
2023-04-22T05:40:40.972Z,66.90
2023-04-22T05:43:08.594Z,66.60
2023-04-22T05:45:35.308Z,66.30
2023-04-22T05:48:02.180Z,66.40
2023-04-22T05:50:28.893Z,66.40
2023-04-22T05:52:55.766Z,66.60
2023-04-22T05:55:22.437Z,66.40
2023-04-22T05:57:49.107Z,66.40
2023-04-22T06:00:16.495Z,66.60
2023-04-22T06:02:43.479Z,66.80
2023-04-22T06:05:10.446Z,67.50
2023-04-22T06:07:37.292Z,67.20
2023-04-22T06:10:05.414Z,66.60
2023-04-22T06:12:34.348Z,66.60
2023-04-22T06:15:01.084Z,66.70
2023-04-22T06:17:28.031Z,66.60
2023-04-22T06:19:54.986Z,66.40
2023-04-22T06:22:21.660Z,66.00
2023-04-22T06:24:48.429Z,66.30
2023-04-22T06:27:15.164Z,66.30
2023-04-22T06:29:41.911Z,66.30
2023-04-22T06:32:08.571Z,66.10
2023-04-22T06:34:35.397Z,66.30
2023-04-22T06:37:02.013Z,66.20
2023-04-22T06:39:28.615Z,66.20
2023-04-22T06:41:55.361Z,66.00
2023-04-22T06:44:22.294Z,66.20
2023-04-22T06:46:49.062Z,66.40
2023-04-22T06:49:15.713Z,67.10
2023-04-22T06:51:42.288Z,66.60
2023-04-22T06:54:09.216Z,66.50
2023-04-22T06:56:36.185Z,66.30
2023-04-22T06:59:02.962Z,66.50
2023-04-22T07:01:29.701Z,66.30
2023-04-22T07:03:56.474Z,66.20
2023-04-22T07:06:23.366Z,66.30
2023-04-22T07:08:50.146Z,66.30
2023-04-22T07:11:16.803Z,66.60
2023-04-22T07:13:43.452Z,66.60
2023-04-22T07:16:10.150Z,66.60
2023-04-22T07:18:36.857Z,66.60
2023-04-22T07:21:03.612Z,66.90
2023-04-22T07:23:30.304Z,66.70
2023-04-22T07:25:57.001Z,66.50
2023-04-22T07:28:23.709Z,66.60
2023-04-22T07:30:50.465Z,66.70
2023-04-22T07:33:17.154Z,66.80
2023-04-22T07:35:43.813Z,66.60
2023-04-22T07:38:11.641Z,66.60
2023-04-22T07:40:39.987Z,66.80
2023-04-22T07:43:06.690Z,66.90
2023-04-22T07:45:33.651Z,66.50
2023-04-22T07:48:00.521Z,66.50
2023-04-22T07:50:27.255Z,66.60
2023-04-22T07:52:53.998Z,66.60
2023-04-22T07:55:20.589Z,66.80
2023-04-22T07:57:47.257Z,66.70
2023-04-22T08:00:14.958Z,66.60
2023-04-22T08:02:42.155Z,66.70
2023-04-22T08:05:09.081Z,66.90
2023-04-22T08:07:35.997Z,66.70
2023-04-22T08:10:02.755Z,66.80
2023-04-22T08:12:29.380Z,66.70
2023-04-22T08:14:58.259Z,66.90
2023-04-22T08:17:25.157Z,66.60
2023-04-22T08:19:51.773Z,67.10
2023-04-22T08:22:18.846Z,66.80
2023-04-22T08:24:45.593Z,66.80
2023-04-22T08:27:12.309Z,66.80
2023-04-22T08:29:39.255Z,66.90
2023-04-22T08:32:06.209Z,67.20
2023-04-22T08:34:32.828Z,67.60
2023-04-22T08:36:59.572Z,67.10
2023-04-22T08:39:26.271Z,67.20
2023-04-22T08:41:53.967Z,67.30
2023-04-22T08:44:22.560Z,67.20
2023-04-22T08:46:50.857Z,67.10
2023-04-22T08:49:18.634Z,67.00
2023-04-22T08:51:46.019Z,67.20
2023-04-22T08:54:12.948Z,67.30
2023-04-22T08:56:44.804Z,67.10
2023-04-22T08:59:12.668Z,67.20
2023-04-22T09:01:41.436Z,67.30
2023-04-22T09:04:10.840Z,67.50
2023-04-22T09:06:39.146Z,67.60
2023-04-22T09:09:06.076Z,67.30
2023-04-22T09:11:33.597Z,67.10
2023-04-22T09:14:00.281Z,67.60
2023-04-22T09:16:26.897Z,67.40
2023-04-22T09:18:53.571Z,67.50
2023-04-22T09:21:20.300Z,67.20
2023-04-22T09:23:52.331Z,67.10
2023-04-22T09:26:20.593Z,67.40
2023-04-22T09:28:58.819Z,67.20
2023-04-22T09:31:26.011Z,67.50
2023-04-22T09:33:53.816Z,67.10
2023-04-22T09:36:24.228Z,67.50
2023-04-22T09:38:56.019Z,67.90
2023-04-22T09:41:38.593Z,67.60
2023-04-22T09:44:09.951Z,67.80
2023-04-22T09:46:36.719Z,67.60
2023-04-22T09:49:03.445Z,67.70
2023-04-22T09:51:30.725Z,67.70
2023-04-22T09:54:06.450Z,68.10
2023-04-22T09:56:49.917Z,67.60
2023-04-22T09:59:28.680Z,68.20
2023-04-22T10:02:00.904Z,67.90
2023-04-22T10:04:28.348Z,67.70
2023-04-22T10:06:55.932Z,67.80
2023-04-22T10:09:24.387Z,67.80
2023-04-22T10:11:53.957Z,68.10
2023-04-22T10:14:24.552Z,68.00
2023-04-22T10:16:56.368Z,68.10
2023-04-22T10:19:24.505Z,67.80
2023-04-22T10:21:55.736Z,68.00
2023-04-22T10:24:25.274Z,67.50
2023-04-22T10:26:58.186Z,68.10
2023-04-22T10:29:26.892Z,68.00
2023-04-22T10:31:57.331Z,67.80
2023-04-22T10:34:24.261Z,68.10
2023-04-22T10:37:05.068Z,68.20
2023-04-22T10:39:32.106Z,67.80
2023-04-22T10:42:06.906Z,68.50
2023-04-22T10:44:53.877Z,68.30
2023-04-22T10:47:38.157Z,68.00
2023-04-22T10:50:18.465Z,68.10
2023-04-22T10:52:59.319Z,68.30
2023-04-22T10:55:46.578Z,68.40
2023-04-22T10:58:24.110Z,68.20
2023-04-22T11:00:59.651Z,68.20
2023-04-22T11:03:28.928Z,68.20
2023-04-22T11:06:18.914Z,68.20
2023-04-22T11:08:49.876Z,67.90
2023-04-22T11:11:19.662Z,68.00
2023-04-22T11:13:50.481Z,68.20
2023-04-22T11:16:18.114Z,68.10
2023-04-22T11:18:47.706Z,68.20
2023-04-22T11:21:14.697Z,68.20
2023-04-22T11:23:53.240Z,68.00
2023-04-22T11:26:33.663Z,68.20
2023-04-22T11:29:00.559Z,68.00
2023-04-22T11:31:27.551Z,67.90
2023-04-22T11:33:58.306Z,67.90
2023-04-22T11:36:25.140Z,68.10
2023-04-22T11:38:56.293Z,68.00
2023-04-22T11:41:25.872Z,67.90
2023-04-22T11:43:54.658Z,68.20
2023-04-22T11:46:31.031Z,68.20
2023-04-22T11:49:16.598Z,68.20
2023-04-22T11:51:56.866Z,69.10
2023-04-22T11:54:34.345Z,67.90
2023-04-22T11:57:08.956Z,68.30
2023-04-22T11:59:35.848Z,68.20
2023-04-22T12:02:06.053Z,68.20
2023-04-22T12:04:40.426Z,68.40
2023-04-22T12:07:07.528Z,68.10
2023-04-22T12:09:34.571Z,68.20
2023-04-22T12:12:04.288Z,68.50
2023-04-22T12:14:34.664Z,68.30
2023-04-22T12:17:05.629Z,68.20
2023-04-22T12:19:32.370Z,68.00
2023-04-22T12:21:59.013Z,68.20
2023-04-22T12:24:29.682Z,68.20
2023-04-22T12:26:56.949Z,68.30
2023-04-22T12:29:36.079Z,68.20
2023-04-22T12:32:02.760Z,68.30
2023-04-22T12:34:29.335Z,68.50
2023-04-22T12:36:56.239Z,68.50
2023-04-22T12:39:22.927Z,68.30
2023-04-22T12:41:51.065Z,68.20
2023-04-22T12:44:17.780Z,68.30
2023-04-22T12:46:44.632Z,68.30
2023-04-22T12:49:11.351Z,68.40
2023-04-22T12:51:37.977Z,68.30
2023-04-22T12:54:04.679Z,69.30
2023-04-22T12:56:31.456Z,68.40
2023-04-22T12:59:02.994Z,68.60
2023-04-22T13:01:30.473Z,68.10
2023-04-22T13:03:57.373Z,68.50
2023-04-22T13:06:24.119Z,68.50
2023-04-22T13:08:50.842Z,68.30
2023-04-22T13:11:17.421Z,68.10
2023-04-22T13:13:44.015Z,68.20
2023-04-22T13:16:11.447Z,68.20
2023-04-22T13:18:38.097Z,68.40
2023-04-22T13:21:06.177Z,68.40
2023-04-22T13:23:33.786Z,68.30
2023-04-22T13:26:00.909Z,68.20
2023-04-22T13:28:28.229Z,68.50
2023-04-22T13:30:55.509Z,68.60
2023-04-22T13:33:22.406Z,68.00
2023-04-22T13:35:49.244Z,67.90
2023-04-22T13:38:15.959Z,67.90
2023-04-22T13:40:42.658Z,68.20
2023-04-22T13:43:09.809Z,68.30
2023-04-22T13:45:36.882Z,68.10
2023-04-22T13:48:04.571Z,67.30
2023-04-22T13:50:31.214Z,68.00
2023-04-22T13:52:57.906Z,68.00
2023-04-22T13:55:24.594Z,68.00
2023-04-22T13:57:51.885Z,67.90
2023-04-22T14:00:18.635Z,67.90
2023-04-22T14:02:45.469Z,68.10
2023-04-22T14:05:12.246Z,68.00
2023-04-22T14:07:38.884Z,67.90
2023-04-22T14:10:08.296Z,67.80
2023-04-22T14:12:34.951Z,67.60
2023-04-22T14:15:01.604Z,67.70
2023-04-22T14:17:28.468Z,67.80
2023-04-22T14:19:55.158Z,67.60
2023-04-22T14:22:21.728Z,67.80
2023-04-22T14:24:48.679Z,67.70
2023-04-22T14:27:15.249Z,67.60
2023-04-22T14:29:42.505Z,67.80
2023-04-22T14:32:09.472Z,67.60
2023-04-22T14:34:36.249Z,67.50
2023-04-22T14:37:02.875Z,67.60
2023-04-22T14:39:29.497Z,67.60
2023-04-22T14:41:57.937Z,67.60
2023-04-22T14:44:24.601Z,67.60
2023-04-22T14:46:51.220Z,67.40
2023-04-22T14:49:17.868Z,67.40
2023-04-22T14:51:44.459Z,67.40
2023-04-22T14:54:11.167Z,67.30
2023-04-22T14:56:37.799Z,67.30
2023-04-22T14:59:04.604Z,67.50
2023-04-22T15:01:34.267Z,67.40
2023-04-22T15:04:01.028Z,67.40
2023-04-22T15:06:28.210Z,67.30
2023-04-22T15:08:55.825Z,67.40
2023-04-22T15:11:22.836Z,67.30
2023-04-22T15:13:49.469Z,67.30
2023-04-22T15:16:16.169Z,67.40
2023-04-22T15:18:42.992Z,67.20
2023-04-22T15:21:10.552Z,67.40
2023-04-22T15:23:37.305Z,67.20
2023-04-22T15:26:04.028Z,68.20
2023-04-22T15:28:30.960Z,67.50
2023-04-22T15:30:57.616Z,67.60
2023-04-22T15:33:24.188Z,67.30
2023-04-22T15:35:52.237Z,67.40
2023-04-22T15:38:19.169Z,67.20
2023-04-22T15:40:45.863Z,67.40
2023-04-22T15:43:12.498Z,67.20
2023-04-22T15:45:39.159Z,67.20
2023-04-22T15:48:05.968Z,67.40
2023-04-22T15:50:32.851Z,67.50
2023-04-22T15:52:59.502Z,67.40
2023-04-22T15:55:26.157Z,67.60
2023-04-22T15:57:52.800Z,67.50
2023-04-22T16:00:19.722Z,67.40
2023-04-22T16:02:54.849Z,67.50
2023-04-22T16:05:22.758Z,67.40
2023-04-22T16:07:49.366Z,67.40
2023-04-22T16:10:16.041Z,67.50
2023-04-22T16:12:42.648Z,67.60
2023-04-22T16:15:10.532Z,67.30
2023-04-22T16:17:38.011Z,67.50
2023-04-22T16:20:07.830Z,68.20
2023-04-22T16:22:34.482Z,67.40
2023-04-22T16:25:01.340Z,67.40
2023-04-22T16:27:28.003Z,67.50
2023-04-22T16:29:54.623Z,67.40
2023-04-22T16:32:21.235Z,67.40
2023-04-22T16:34:47.854Z,67.50
2023-04-22T16:37:15.384Z,67.50
2023-04-22T16:39:42.684Z,67.30
2023-04-22T16:42:09.540Z,67.50
2023-04-22T16:44:36.197Z,67.30
2023-04-22T16:47:02.807Z,67.30
2023-04-22T16:49:29.405Z,67.30
2023-04-22T16:51:56.042Z,67.40
2023-04-22T16:54:22.648Z,67.40
2023-04-22T16:56:49.256Z,67.40
2023-04-22T16:59:15.880Z,67.40
2023-04-22T17:01:42.612Z,67.30
2023-04-22T17:04:09.423Z,67.60
2023-04-22T17:06:38.541Z,66.80
2023-04-22T17:09:06.886Z,66.50
2023-04-22T17:11:33.542Z,67.30
2023-04-22T17:14:00.295Z,66.80
2023-04-22T17:16:26.923Z,67.20
2023-04-22T17:18:53.644Z,66.50
2023-04-22T17:21:20.620Z,66.40
2023-04-22T17:23:47.260Z,66.70
2023-04-22T17:26:13.857Z,66.40
2023-04-22T17:28:40.854Z,67.50
2023-04-22T17:31:07.898Z,67.00
2023-04-22T17:33:37.785Z,67.30
2023-04-22T17:36:04.785Z,67.70
2023-04-22T17:38:31.623Z,66.50
2023-04-22T17:40:58.671Z,67.00
2023-04-22T17:43:26.118Z,66.90
2023-04-22T17:45:52.761Z,67.00
2023-04-22T17:48:19.656Z,66.90
2023-04-22T17:50:46.337Z,67.00
2023-04-22T17:53:13.028Z,67.20
2023-04-22T17:55:39.683Z,66.60
2023-04-22T17:58:06.300Z,61.50
2023-04-22T18:00:33.987Z,60.30
2023-04-22T18:03:00.951Z,58.50
2023-04-22T18:05:27.841Z,57.60
2023-04-22T18:08:01.639Z,56.30
2023-04-22T18:10:29.345Z,55.90
2023-04-22T18:12:56.004Z,57.40
2023-04-22T18:15:25.818Z,55.80
2023-04-22T18:17:52.569Z,55.40
2023-04-22T18:20:19.887Z,56.00
2023-04-22T18:22:48.303Z,56.20
2023-04-22T18:25:15.921Z,56.50
2023-04-22T18:27:42.985Z,56.70
2023-04-22T18:30:14.635Z,56.90
2023-04-22T18:32:41.313Z,57.00
2023-04-22T18:35:08.567Z,57.00
2023-04-22T18:37:35.430Z,56.40
2023-04-22T18:40:02.695Z,56.40
2023-04-22T18:42:29.985Z,56.30
2023-04-22T18:44:57.095Z,58.40
2023-04-22T18:47:23.772Z,58.50
2023-04-22T18:49:50.814Z,58.90
2023-04-22T18:52:17.924Z,58.90
2023-04-22T18:54:44.638Z,59.30
2023-04-22T18:57:11.279Z,59.70
2023-04-22T18:59:38.121Z,59.80
2023-04-22T19:02:05.687Z,59.80
2023-04-22T19:04:32.496Z,60.00
2023-04-22T19:06:59.277Z,60.30
2023-04-22T19:09:26.069Z,60.60
2023-04-22T19:11:52.999Z,60.80
2023-04-22T19:14:19.833Z,60.60
2023-04-22T19:16:46.625Z,60.80
2023-04-22T19:19:13.423Z,60.90
2023-04-22T19:21:40.379Z,61.00
2023-04-22T19:24:07.224Z,61.10
2023-04-22T19:26:34.350Z,61.30
2023-04-22T19:29:01.195Z,60.70
2023-04-22T19:31:28.932Z,61.20
2023-04-22T19:33:55.860Z,60.20
2023-04-22T19:36:22.786Z,60.30
2023-04-22T19:38:49.648Z,60.40
2023-04-22T19:41:16.725Z,61.40
2023-04-22T19:43:43.414Z,61.00
2023-04-22T19:46:10.379Z,61.30
2023-04-22T19:48:37.459Z,61.00
2023-04-22T19:51:05.682Z,61.00
2023-04-22T19:53:33.155Z,61.80
2023-04-22T19:55:59.965Z,61.40
2023-04-22T19:58:28.307Z,61.80
2023-04-22T20:00:55.597Z,62.00
2023-04-22T20:03:22.745Z,62.20
2023-04-22T20:05:50.317Z,62.30
2023-04-22T20:08:19.728Z,62.50
2023-04-22T20:10:49.524Z,62.70
2023-04-22T20:13:17.207Z,63.00
2023-04-22T20:15:44.582Z,63.20
2023-04-22T20:18:11.826Z,63.40
2023-04-22T20:20:40.440Z,63.50
2023-04-22T20:23:10.479Z,63.60
2023-04-22T20:25:41.979Z,63.70
2023-04-22T20:28:10.614Z,63.90
2023-04-22T20:30:37.564Z,64.20
2023-04-22T20:33:04.578Z,64.40
2023-04-22T20:35:31.973Z,65.40
2023-04-22T20:38:00.099Z,65.40
2023-04-22T20:40:28.960Z,64.60
2023-04-22T20:42:58.644Z,64.80
2023-04-22T20:45:27.087Z,65.20
2023-04-22T20:47:53.737Z,65.10
2023-04-22T20:50:23.151Z,65.30
2023-04-22T20:52:50.063Z,65.60
2023-04-22T20:55:17.094Z,65.80
2023-04-22T20:57:44.005Z,66.40
2023-04-22T21:00:11.543Z,66.60
2023-04-22T21:02:39.171Z,66.70
2023-04-22T21:05:06.668Z,67.00
2023-04-22T21:07:34.536Z,67.00
2023-04-22T21:10:01.384Z,67.20
2023-04-22T21:12:28.219Z,67.20
2023-04-22T21:14:55.319Z,67.40
2023-04-22T21:17:26.651Z,67.50
2023-04-22T21:19:57.005Z,67.60
2023-04-22T21:22:24.863Z,67.70
2023-04-22T21:24:52.288Z,67.80
2023-04-22T21:27:19.932Z,68.50
2023-04-22T21:29:47.646Z,67.90
2023-04-22T21:32:14.559Z,68.00
2023-04-22T21:34:41.660Z,67.90
2023-04-22T21:37:08.956Z,68.10
2023-04-22T21:39:36.287Z,67.90
2023-04-22T21:42:07.278Z,68.20
2023-04-22T21:44:36.119Z,68.20
2023-04-22T21:47:03.669Z,68.30
2023-04-22T21:49:30.304Z,68.30
2023-04-22T21:51:57.008Z,67.80
2023-04-22T21:54:23.759Z,68.30
2023-04-22T21:56:50.835Z,68.50
2023-04-22T21:59:17.640Z,68.40
2023-04-22T22:01:44.378Z,68.50
2023-04-22T22:04:13.920Z,68.50
2023-04-22T22:06:42.373Z,68.60
2023-04-22T22:09:09.126Z,68.50
2023-04-22T22:11:35.954Z,68.70
2023-04-22T22:14:02.772Z,68.80
2023-04-22T22:16:29.692Z,68.50
2023-04-22T22:18:57.771Z,68.50
2023-04-22T22:21:24.636Z,68.70
2023-04-22T22:23:51.736Z,68.50
2023-04-22T22:26:18.526Z,68.70
2023-04-22T22:28:45.283Z,68.90
2023-04-22T22:31:11.998Z,68.60
2023-04-22T22:33:38.644Z,68.80
2023-04-22T22:36:05.467Z,68.70
2023-04-22T22:38:32.262Z,69.00
2023-04-22T22:40:58.912Z,69.00
2023-04-22T22:43:25.616Z,69.20
2023-04-22T22:45:52.734Z,68.80
2023-04-22T22:48:19.525Z,68.90
2023-04-22T22:50:46.542Z,69.30
2023-04-22T22:53:13.149Z,69.50
2023-04-22T22:55:39.809Z,69.30
2023-04-22T22:58:06.431Z,69.30
2023-04-22T23:00:33.123Z,69.30
2023-04-22T23:02:59.859Z,69.30
2023-04-22T23:05:27.332Z,69.50
2023-04-22T23:07:53.899Z,69.40
2023-04-22T23:10:20.805Z,69.20
2023-04-22T23:12:47.429Z,69.10
2023-04-22T23:15:14.093Z,69.50
2023-04-22T23:17:40.853Z,69.10
2023-04-22T23:20:09.855Z,69.40
2023-04-22T23:22:42.128Z,69.40
2023-04-22T23:25:09.497Z,69.30
2023-04-22T23:27:36.374Z,69.60
2023-04-22T23:30:04.637Z,69.60
2023-04-22T23:32:32.500Z,69.60
2023-04-22T23:35:01.255Z,70.50
2023-04-22T23:37:29.455Z,69.40
2023-04-22T23:39:56.216Z,69.70
2023-04-22T23:42:23.021Z,69.90
2023-04-22T23:44:49.837Z,70.00
2023-04-22T23:47:16.964Z,69.60
2023-04-22T23:49:43.884Z,69.90
2023-04-22T23:52:12.682Z,70.30
2023-04-22T23:54:40.367Z,70.10
2023-04-22T23:57:07.511Z,70.00
2023-04-22T23:59:34.360Z,69.80
